sensor_id;sensor_type;location;lat;lon;timestamp;pressure;altitude;pressure_sealevel;temperature;humidity
22653;BME280;11493;43.344;26.226;2023-03-14T00:00:51;99606.16;;;1.28;83.61
22653;BME280;11493;43.344;26.226;2023-03-14T00:03:18;99588.59;;;1.14;82.96
22653;BME280;11493;43.344;26.226;2023-03-14T00:05:45;99618.06;;;1.27;83.35
22653;BME280;11493;43.344;26.226;2023-03-14T00:08:12;99602.31;;;1.08;83.74
22653;BME280;11493;43.344;26.226;2023-03-14T00:10:39;99603.44;;;0.95;84.31
22653;BME280;11493;43.344;26.226;2023-03-14T00:13:06;99599.81;;;0.89;84.48
22653;BME280;11493;43.344;26.226;2023-03-14T00:15:34;99613.94;;;0.91;84.63
22653;BME280;11493;43.344;26.226;2023-03-14T00:18:01;99611.06;;;0.81;84.29
22653;BME280;11493;43.344;26.226;2023-03-14T00:20:28;99620.34;;;0.85;84.30
22653;BME280;11493;43.344;26.226;2023-03-14T00:22:55;99620.34;;;0.85;84.17
22653;BME280;11493;43.344;26.226;2023-03-14T00:25:22;99616.22;;;0.83;83.96
22653;BME280;11493;43.344;26.226;2023-03-14T00:27:50;99606.31;;;0.72;84.36
22653;BME280;11493;43.344;26.226;2023-03-14T00:30:18;99607.13;;;0.72;84.69
22653;BME280;11493;43.344;26.226;2023-03-14T00:32:45;99614.25;;;0.78;84.22
22653;BME280;11493;43.344;26.226;2023-03-14T00:35:12;99586.34;;;0.61;84.99
22653;BME280;11493;43.344;26.226;2023-03-14T00:37:39;99586.84;;;0.58;85.08
22653;BME280;11493;43.344;26.226;2023-03-14T00:40:07;99602.78;;;0.71;85.24
22653;BME280;11493;43.344;26.226;2023-03-14T00:42:34;99603.50;;;0.67;85.48
22653;BME280;11493;43.344;26.226;2023-03-14T00:45:01;99600.72;;;0.61;85.52
22653;BME280;11493;43.344;26.226;2023-03-14T00:47:28;99582.97;;;0.54;85.81
22653;BME280;11493;43.344;26.226;2023-03-14T00:49:55;99587.31;;;0.55;85.94
22653;BME280;11493;43.344;26.226;2023-03-14T00:52:23;99565.63;;;0.38;85.84
22653;BME280;11493;43.344;26.226;2023-03-14T00:54:50;99570.41;;;0.48;86.01
22653;BME280;11493;43.344;26.226;2023-03-14T00:57:17;99576.00;;;0.58;85.84
22653;BME280;11493;43.344;26.226;2023-03-14T00:59:44;99574.03;;;0.53;86.34
22653;BME280;11493;43.344;26.226;2023-03-14T01:02:11;99570.59;;;0.58;86.22
22653;BME280;11493;43.344;26.226;2023-03-14T01:04:38;99562.97;;;0.55;85.82
22653;BME280;11493;43.344;26.226;2023-03-14T01:07:06;99571.22;;;0.48;86.63
22653;BME280;11493;43.344;26.226;2023-03-14T01:09:32;99558.56;;;0.37;87.33
22653;BME280;11493;43.344;26.226;2023-03-14T01:11:59;99567.47;;;0.49;87.78
22653;BME280;11493;43.344;26.226;2023-03-14T01:14:26;99558.75;;;0.47;88.15
22653;BME280;11493;43.344;26.226;2023-03-14T01:16:53;99534.78;;;0.39;88.04
22653;BME280;11493;43.344;26.226;2023-03-14T01:19:20;99531.03;;;0.40;88.23
22653;BME280;11493;43.344;26.226;2023-03-14T01:21:47;99549.19;;;0.56;87.86
22653;BME280;11493;43.344;26.226;2023-03-14T01:24:14;99549.75;;;0.58;87.36
22653;BME280;11493;43.344;26.226;2023-03-14T01:26:42;99556.81;;;0.59;86.83
22653;BME280;11493;43.344;26.226;2023-03-14T01:29:09;99554.00;;;0.54;87.00
22653;BME280;11493;43.344;26.226;2023-03-14T01:31:38;99535.78;;;0.50;86.93
22653;BME280;11493;43.344;26.226;2023-03-14T01:34:05;99553.03;;;0.60;86.40
22653;BME280;11493;43.344;26.226;2023-03-14T01:36:32;99536.13;;;0.53;85.97
22653;BME280;11493;43.344;26.226;2023-03-14T01:39:00;99529.94;;;0.41;86.07
22653;BME280;11493;43.344;26.226;2023-03-14T01:41:28;99522.47;;;0.31;85.90
22653;BME280;11493;43.344;26.226;2023-03-14T01:43:57;99518.94;;;0.31;85.88
22653;BME280;11493;43.344;26.226;2023-03-14T01:49:05;99509.34;;;0.23;86.35
22653;BME280;11493;43.344;26.226;2023-03-14T01:51:44;99511.94;;;0.18;85.95
22653;BME280;11493;43.344;26.226;2023-03-14T01:54:17;99511.31;;;0.28;86.59
22653;BME280;11493;43.344;26.226;2023-03-14T01:56:52;99502.84;;;0.24;84.83
22653;BME280;11493;43.344;26.226;2023-03-14T01:59:20;99514.75;;;0.23;84.54
22653;BME280;11493;43.344;26.226;2023-03-14T02:01:48;99508.31;;;0.13;85.23
22653;BME280;11493;43.344;26.226;2023-03-14T02:04:17;99509.97;;;0.14;84.47
22653;BME280;11493;43.344;26.226;2023-03-14T02:07:00;99501.06;;;0.02;85.69
22653;BME280;11493;43.344;26.226;2023-03-14T02:09:36;99486.13;;;-0.18;86.41
22653;BME280;11493;43.344;26.226;2023-03-14T02:12:04;99499.28;;;-0.10;86.44
22653;BME280;11493;43.344;26.226;2023-03-14T02:14:52;99492.84;;;-0.20;87.22
22653;BME280;11493;43.344;26.226;2023-03-14T02:17:33;99519.25;;;-0.11;86.92
22653;BME280;11493;43.344;26.226;2023-03-14T02:20:59;99508.53;;;-0.06;87.05
22653;BME280;11493;43.344;26.226;2023-03-14T02:28:46;99511.91;;;0.02;86.91
22653;BME280;11493;43.344;26.226;2023-03-14T02:31:13;99501.50;;;-0.07;85.99
22653;BME280;11493;43.344;26.226;2023-03-14T02:33:41;99506.59;;;-0.22;86.32
22653;BME280;11493;43.344;26.226;2023-03-14T02:36:11;99501.81;;;-0.31;87.36
22653;BME280;11493;43.344;26.226;2023-03-14T02:41:13;99488.44;;;-0.50;88.22
22653;BME280;11493;43.344;26.226;2023-03-14T02:43:46;99491.50;;;-0.46;87.74
22653;BME280;11493;43.344;26.226;2023-03-14T02:46:16;99502.91;;;-0.44;88.11
22653;BME280;11493;43.344;26.226;2023-03-14T02:51:15;99488.47;;;-0.61;89.02
22653;BME280;11493;43.344;26.226;2023-03-14T02:53:45;99507.84;;;-0.53;89.01
22653;BME280;11493;43.344;26.226;2023-03-14T02:56:13;99499.75;;;-0.64;88.77
22653;BME280;11493;43.344;26.226;2023-03-14T02:58:40;99510.78;;;-0.54;88.76
22653;BME280;11493;43.344;26.226;2023-03-14T03:01:18;99508.56;;;-0.57;88.74
22653;BME280;11493;43.344;26.226;2023-03-14T03:03:45;99507.97;;;-0.59;88.84
22653;BME280;11493;43.344;26.226;2023-03-14T03:06:12;99512.66;;;-0.55;88.50
22653;BME280;11493;43.344;26.226;2023-03-14T03:08:39;99500.13;;;-0.73;88.71
22653;BME280;11493;43.344;26.226;2023-03-14T03:11:06;99511.88;;;-0.67;88.96
22653;BME280;11493;43.344;26.226;2023-03-14T03:13:34;99497.94;;;-0.76;89.61
22653;BME280;11493;43.344;26.226;2023-03-14T03:16:04;99490.38;;;-0.74;89.49
22653;BME280;11493;43.344;26.226;2023-03-14T03:18:33;99494.25;;;-0.70;88.81
22653;BME280;11493;43.344;26.226;2023-03-14T03:21:04;99506.44;;;-0.55;88.59
22653;BME280;11493;43.344;26.226;2023-03-14T03:23:31;99492.47;;;-0.64;87.38
22653;BME280;11493;43.344;26.226;2023-03-14T03:25:58;99493.41;;;-0.58;86.98
22653;BME280;11493;43.344;26.226;2023-03-14T03:28:25;99509.50;;;-0.52;86.74
22653;BME280;11493;43.344;26.226;2023-03-14T03:30:53;99505.84;;;-0.57;86.83
22653;BME280;11493;43.344;26.226;2023-03-14T03:33:20;99513.63;;;-0.61;88.41
22653;BME280;11493;43.344;26.226;2023-03-14T03:35:50;99506.81;;;-0.63;87.49
22653;BME280;11493;43.344;26.226;2023-03-14T03:38:30;99506.28;;;-0.77;87.86
22653;BME280;11493;43.344;26.226;2023-03-14T03:41:02;99502.16;;;-0.91;88.44
22653;BME280;11493;43.344;26.226;2023-03-14T03:43:30;99490.06;;;-1.01;89.03
22653;BME280;11493;43.344;26.226;2023-03-14T03:46:02;99454.63;;;-1.27;88.72
22653;BME280;11493;43.344;26.226;2023-03-14T03:48:30;99513.31;;;-0.88;88.63
22653;BME280;11493;43.344;26.226;2023-03-14T03:51:00;99525.19;;;-0.89;88.56
22653;BME280;11493;43.344;26.226;2023-03-14T03:53:27;99524.25;;;-0.94;88.71
22653;BME280;11493;43.344;26.226;2023-03-14T03:56:08;99510.84;;;-1.01;89.00
22653;BME280;11493;43.344;26.226;2023-03-14T03:58:35;99508.97;;;-1.01;89.14
22653;BME280;11493;43.344;26.226;2023-03-14T04:01:06;99509.81;;;-1.00;89.46
22653;BME280;11493;43.344;26.226;2023-03-14T04:03:35;99502.16;;;-1.03;89.43
22653;BME280;11493;43.344;26.226;2023-03-14T04:06:04;99497.81;;;-1.04;89.04
22653;BME280;11493;43.344;26.226;2023-03-14T04:08:33;99509.31;;;-0.97;88.63
22653;BME280;11493;43.344;26.226;2023-03-14T04:11:01;99497.34;;;-1.01;87.80
22653;BME280;11493;43.344;26.226;2023-03-14T04:14:05;99496.19;;;-0.93;87.59
22653;BME280;11493;43.344;26.226;2023-03-14T04:16:32;99472.00;;;-1.12;87.52
22653;BME280;11493;43.344;26.226;2023-03-14T04:19:09;99478.69;;;-1.03;88.50
22653;BME280;11493;43.344;26.226;2023-03-14T04:21:36;99480.69;;;-0.98;88.67
22653;BME280;11493;43.344;26.226;2023-03-14T04:24:10;99470.81;;;-1.04;88.59
22653;BME280;11493;43.344;26.226;2023-03-14T04:26:37;99452.63;;;-1.20;89.01
22653;BME280;11493;43.344;26.226;2023-03-14T04:29:05;99474.09;;;-1.02;88.53
22653;BME280;11493;43.344;26.226;2023-03-14T04:31:32;99468.69;;;-1.02;88.85
22653;BME280;11493;43.344;26.226;2023-03-14T04:33:59;99465.66;;;-0.94;89.18
22653;BME280;11493;43.344;26.226;2023-03-14T04:36:37;99468.59;;;-0.95;88.97
22653;BME280;11493;43.344;26.226;2023-03-14T04:39:11;99463.75;;;-0.93;88.47
22653;BME280;11493;43.344;26.226;2023-03-14T04:41:44;99446.06;;;-1.13;89.16
22653;BME280;11493;43.344;26.226;2023-03-14T04:44:11;99462.59;;;-1.09;89.45
22653;BME280;11493;43.344;26.226;2023-03-14T04:46:38;99458.84;;;-1.08;89.93
22653;BME280;11493;43.344;26.226;2023-03-14T04:49:06;99472.94;;;-1.06;90.06
22653;BME280;11493;43.344;26.226;2023-03-14T04:51:34;99443.00;;;-1.16;90.11
22653;BME280;11493;43.344;26.226;2023-03-14T04:54:01;99446.03;;;-1.01;89.94
22653;BME280;11493;43.344;26.226;2023-03-14T04:56:28;99447.31;;;-0.92;89.32
22653;BME280;11493;43.344;26.226;2023-03-14T04:58:56;99443.91;;;-0.87;88.83
22653;BME280;11493;43.344;26.226;2023-03-14T05:01:23;99432.53;;;-0.89;88.47
22653;BME280;11493;43.344;26.226;2023-03-14T05:04:09;99422.66;;;-0.84;88.39
22653;BME280;11493;43.344;26.226;2023-03-14T05:06:51;99430.22;;;-0.69;87.90
22653;BME280;11493;43.344;26.226;2023-03-14T05:09:23;99428.31;;;-0.57;87.03
22653;BME280;11493;43.344;26.226;2023-03-14T05:12:29;99435.22;;;-0.21;86.33
22653;BME280;11493;43.344;26.226;2023-03-14T05:15:04;99440.34;;;-0.08;85.27
22653;BME280;11493;43.344;26.226;2023-03-14T05:17:55;99424.38;;;-0.09;86.17
22653;BME280;11493;43.344;26.226;2023-03-14T05:20:51;99422.31;;;-0.02;86.58
22653;BME280;11493;43.344;26.226;2023-03-14T05:23:38;99420.69;;;0.14;85.90
22653;BME280;11493;43.344;26.226;2023-03-14T05:26:28;99421.44;;;0.26;85.79
22653;BME280;11493;43.344;26.226;2023-03-14T05:29:04;99420.38;;;0.44;85.10
22653;BME280;11493;43.344;26.226;2023-03-14T05:31:55;99404.94;;;0.44;84.31
22653;BME280;11493;43.344;26.226;2023-03-14T05:34:35;99413.97;;;0.67;84.39
22653;BME280;11493;43.344;26.226;2023-03-14T05:37:11;99400.53;;;0.77;83.71
22653;BME280;11493;43.344;26.226;2023-03-14T05:40:01;99415.59;;;1.06;81.84
22653;BME280;11493;43.344;26.226;2023-03-14T05:42:52;99422.78;;;1.17;80.96
22653;BME280;11493;43.344;26.226;2023-03-14T05:45:48;99421.53;;;1.25;82.95
22653;BME280;11493;43.344;26.226;2023-03-14T05:48:37;99422.03;;;1.44;83.11
22653;BME280;11493;43.344;26.226;2023-03-14T05:51:19;99407.75;;;1.53;84.13
22653;BME280;11493;43.344;26.226;2023-03-14T05:53:55;99427.28;;;1.77;83.05
22653;BME280;11493;43.344;26.226;2023-03-14T05:56:41;99413.00;;;1.87;81.94
22653;BME280;11493;43.344;26.226;2023-03-14T05:59:34;99420.78;;;2.05;83.92
22653;BME280;11493;43.344;26.226;2023-03-14T06:02:11;99420.44;;;2.28;82.33
22653;BME280;11493;43.344;26.226;2023-03-14T06:04:54;99427.53;;;2.35;81.27
22653;BME280;11493;43.344;26.226;2023-03-14T06:07:21;99419.75;;;2.43;80.63
22653;BME280;11493;43.344;26.226;2023-03-14T06:09:49;99413.28;;;2.49;80.66
22653;BME280;11493;43.344;26.226;2023-03-14T06:12:17;99425.94;;;2.71;80.14
22653;BME280;11493;43.344;26.226;2023-03-14T06:14:45;99421.13;;;2.83;79.30
22653;BME280;11493;43.344;26.226;2023-03-14T06:17:13;99415.19;;;2.91;78.72
22653;BME280;11493;43.344;26.226;2023-03-14T06:19:52;99408.47;;;3.09;79.02
22653;BME280;11493;43.344;26.226;2023-03-14T06:22:19;99425.22;;;3.38;78.26
22653;BME280;11493;43.344;26.226;2023-03-14T06:24:46;99419.00;;;3.47;76.79
22653;BME280;11493;43.344;26.226;2023-03-14T06:27:15;99417.63;;;3.45;76.04
22653;BME280;11493;43.344;26.226;2023-03-14T06:29:43;99384.94;;;3.35;75.82
22653;BME280;11493;43.344;26.226;2023-03-14T06:32:10;99407.09;;;3.63;75.19
22653;BME280;11493;43.344;26.226;2023-03-14T06:34:38;99408.75;;;3.85;74.24
22653;BME280;11493;43.344;26.226;2023-03-14T06:37:05;99406.63;;;4.07;72.83
22653;BME280;11493;43.344;26.226;2023-03-14T06:39:33;99412.38;;;4.26;71.90
22653;BME280;11493;43.344;26.226;2023-03-14T06:42:06;99403.66;;;4.39;70.61
22653;BME280;11493;43.344;26.226;2023-03-14T06:44:34;99393.28;;;4.51;70.79
22653;BME280;11493;43.344;26.226;2023-03-14T06:47:01;99381.53;;;4.66;69.35
22653;BME280;11493;43.344;26.226;2023-03-14T06:49:30;99398.41;;;4.88;68.34
22653;BME280;11493;43.344;26.226;2023-03-14T06:51:59;99385.84;;;5.03;67.68
22653;BME280;11493;43.344;26.226;2023-03-14T06:54:30;99390.34;;;5.33;65.38
22653;BME280;11493;43.344;26.226;2023-03-14T06:56:58;99387.81;;;5.51;63.63
22653;BME280;11493;43.344;26.226;2023-03-14T06:59:42;99386.59;;;5.78;63.40
22653;BME280;11493;43.344;26.226;2023-03-14T07:02:13;99385.84;;;6.11;63.17
22653;BME280;11493;43.344;26.226;2023-03-14T07:04:42;99382.03;;;6.46;60.37
22653;BME280;11493;43.344;26.226;2023-03-14T07:07:10;99372.94;;;6.80;61.99
22653;BME280;11493;43.344;26.226;2023-03-14T07:09:38;99358.94;;;7.10;59.31
22653;BME280;11493;43.344;26.226;2023-03-14T07:12:08;99378.34;;;7.38;58.73
22653;BME280;11493;43.344;26.226;2023-03-14T07:14:36;99369.69;;;7.49;58.19
22653;BME280;11493;43.344;26.226;2023-03-14T07:17:04;99377.03;;;7.73;56.70
22653;BME280;11493;43.344;26.226;2023-03-14T07:19:31;99366.09;;;7.73;56.21
22653;BME280;11493;43.344;26.226;2023-03-14T07:21:59;99356.25;;;7.90;55.92
22653;BME280;11493;43.344;26.226;2023-03-14T07:24:29;99362.84;;;8.08;57.35
22653;BME280;11493;43.344;26.226;2023-03-14T07:26:56;99357.56;;;8.12;54.96
22653;BME280;11493;43.344;26.226;2023-03-14T07:29:24;99353.63;;;8.18;54.85
22653;BME280;11493;43.344;26.226;2023-03-14T07:31:57;99356.06;;;8.38;55.05
22653;BME280;11493;43.344;26.226;2023-03-14T07:34:27;99348.38;;;8.54;55.10
22653;BME280;11493;43.344;26.226;2023-03-14T07:36:56;99352.28;;;8.67;54.37
22653;BME280;11493;43.344;26.226;2023-03-14T07:39:24;99337.88;;;8.75;53.59
22653;BME280;11493;43.344;26.226;2023-03-14T07:42:12;99322.25;;;8.89;51.97
22653;BME280;11493;43.344;26.226;2023-03-14T07:44:56;99320.41;;;9.12;51.17
22653;BME280;11493;43.344;26.226;2023-03-14T07:47:23;99328.53;;;9.31;51.24
22653;BME280;11493;43.344;26.226;2023-03-14T07:49:51;99333.59;;;9.51;50.73
22653;BME280;11493;43.344;26.226;2023-03-14T07:52:18;99326.00;;;9.70;52.13
22653;BME280;11493;43.344;26.226;2023-03-14T07:54:50;99326.75;;;9.98;49.40
22653;BME280;11493;43.344;26.226;2023-03-14T07:57:18;99292.13;;;9.97;51.27
22653;BME280;11493;43.344;26.226;2023-03-14T07:59:48;99317.03;;;10.37;49.43
22653;BME280;11493;43.344;26.226;2023-03-14T08:02:17;99294.84;;;10.33;49.80
22653;BME280;11493;43.344;26.226;2023-03-14T08:04:47;99317.13;;;10.54;49.82
22653;BME280;11493;43.344;26.226;2023-03-14T08:07:16;99293.31;;;10.49;48.08
22653;BME280;11493;43.344;26.226;2023-03-14T08:09:44;99307.47;;;10.65;46.89
22653;BME280;11493;43.344;26.226;2023-03-14T08:12:12;99293.75;;;10.74;48.14
22653;BME280;11493;43.344;26.226;2023-03-14T08:14:39;99309.72;;;10.94;46.15
22653;BME280;11493;43.344;26.226;2023-03-14T08:17:10;99296.28;;;10.93;46.44
22653;BME280;11493;43.344;26.226;2023-03-14T08:19:40;99292.06;;;10.95;45.86
22653;BME280;11493;43.344;26.226;2023-03-14T08:22:09;99304.94;;;11.08;46.42
22653;BME280;11493;43.344;26.226;2023-03-14T08:24:38;99294.41;;;11.19;45.95
22653;BME280;11493;43.344;26.226;2023-03-14T08:27:07;99296.69;;;11.26;45.36
22653;BME280;11493;43.344;26.226;2023-03-14T08:29:38;99289.59;;;11.42;44.63
22653;BME280;11493;43.344;26.226;2023-03-14T08:32:08;99287.38;;;11.61;44.44
22653;BME280;11493;43.344;26.226;2023-03-14T08:34:36;99283.66;;;11.74;43.94
22653;BME280;11493;43.344;26.226;2023-03-14T08:37:18;99274.94;;;11.81;44.50
22653;BME280;11493;43.344;26.226;2023-03-14T08:39:53;99278.94;;;11.92;42.28
22653;BME280;11493;43.344;26.226;2023-03-14T08:42:29;99256.56;;;11.94;42.03
22653;BME280;11493;43.344;26.226;2023-03-14T08:44:57;99266.78;;;12.02;41.84
22653;BME280;11493;43.344;26.226;2023-03-14T08:47:26;99274.72;;;12.21;41.40
22653;BME280;11493;43.344;26.226;2023-03-14T08:49:54;99262.22;;;12.23;41.13
22653;BME280;11493;43.344;26.226;2023-03-14T08:52:22;99265.75;;;12.49;41.12
22653;BME280;11493;43.344;26.226;2023-03-14T08:54:51;99249.34;;;12.44;39.77
22653;BME280;11493;43.344;26.226;2023-03-14T08:57:18;99254.63;;;12.67;40.20
22653;BME280;11493;43.344;26.226;2023-03-14T08:59:46;99241.06;;;12.82;38.45
22653;BME280;11493;43.344;26.226;2023-03-14T09:02:13;99242.47;;;12.97;38.97
22653;BME280;11493;43.344;26.226;2023-03-14T09:04:41;99242.09;;;13.07;37.66
22653;BME280;11493;43.344;26.226;2023-03-14T09:07:08;99234.66;;;12.99;36.36
22653;BME280;11493;43.344;26.226;2023-03-14T09:09:38;99224.84;;;13.10;35.79
22653;BME280;11493;43.344;26.226;2023-03-14T09:12:06;99208.75;;;13.21;36.57
22653;BME280;11493;43.344;26.226;2023-03-14T09:14:33;99204.34;;;13.41;36.82
22653;BME280;11493;43.344;26.226;2023-03-14T09:17:03;99199.06;;;13.36;35.90
22653;BME280;11493;43.344;26.226;2023-03-14T09:19:33;99200.78;;;13.40;37.51
22653;BME280;11493;43.344;26.226;2023-03-14T09:22:01;99208.00;;;13.54;35.86
22653;BME280;11493;43.344;26.226;2023-03-14T09:24:29;99198.22;;;13.56;35.65
22653;BME280;11493;43.344;26.226;2023-03-14T09:26:56;99192.75;;;13.68;36.24
22653;BME280;11493;43.344;26.226;2023-03-14T09:29:24;99182.63;;;13.72;35.32
22653;BME280;11493;43.344;26.226;2023-03-14T09:31:55;99177.81;;;13.81;35.33
22653;BME280;11493;43.344;26.226;2023-03-14T09:34:24;99172.59;;;14.01;35.46
22653;BME280;11493;43.344;26.226;2023-03-14T09:36:55;99169.84;;;14.01;35.76
22653;BME280;11493;43.344;26.226;2023-03-14T09:39:23;99171.00;;;14.12;33.97
22653;BME280;11493;43.344;26.226;2023-03-14T09:41:52;99161.78;;;14.20;33.03
22653;BME280;11493;43.344;26.226;2023-03-14T09:44:34;99159.22;;;14.15;34.11
22653;BME280;11493;43.344;26.226;2023-03-14T09:47:06;99156.06;;;14.37;32.95
22653;BME280;11493;43.344;26.226;2023-03-14T09:49:40;99147.28;;;14.35;33.83
22653;BME280;11493;43.344;26.226;2023-03-14T09:52:16;99153.09;;;14.42;34.15
22653;BME280;11493;43.344;26.226;2023-03-14T09:54:50;99146.63;;;14.51;33.85
22653;BME280;11493;43.344;26.226;2023-03-14T09:57:23;99144.00;;;14.66;33.97
22653;BME280;11493;43.344;26.226;2023-03-14T09:59:54;99144.09;;;14.82;33.18
22653;BME280;11493;43.344;26.226;2023-03-14T10:02:28;99124.16;;;14.76;33.00
22653;BME280;11493;43.344;26.226;2023-03-14T10:05:00;99131.38;;;14.93;32.50
22653;BME280;11493;43.344;26.226;2023-03-14T10:07:32;99132.50;;;15.17;30.49
22653;BME280;11493;43.344;26.226;2023-03-14T10:10:25;99134.56;;;15.20;29.71
22653;BME280;11493;43.344;26.226;2023-03-14T10:12:57;99130.88;;;15.16;30.32
22653;BME280;11493;43.344;26.226;2023-03-14T10:15:36;99127.63;;;15.26;29.93
22653;BME280;11493;43.344;26.226;2023-03-14T10:18:11;99116.28;;;15.31;29.52
22653;BME280;11493;43.344;26.226;2023-03-14T10:20:47;99106.63;;;15.12;29.41
22653;BME280;11493;43.344;26.226;2023-03-14T10:28:46;99087.66;;;15.27;29.26
22653;BME280;11493;43.344;26.226;2023-03-14T10:31:15;99085.66;;;15.39;29.27
22653;BME280;11493;43.344;26.226;2023-03-14T10:33:58;99081.50;;;15.33;28.90
22653;BME280;11493;43.344;26.226;2023-03-14T10:36:31;99065.75;;;15.50;28.80
22653;BME280;11493;43.344;26.226;2023-03-14T10:41:54;99056.94;;;15.75;28.63
22653;BME280;11493;43.344;26.226;2023-03-14T10:44:26;99053.06;;;15.64;28.29
22653;BME280;11493;43.344;26.226;2023-03-14T10:47:02;99048.63;;;15.75;27.58
22653;BME280;11493;43.344;26.226;2023-03-14T10:49:36;99045.22;;;15.82;27.80
22653;BME280;11493;43.344;26.226;2023-03-14T10:54:57;99035.47;;;15.88;26.80
22653;BME280;11493;43.344;26.226;2023-03-14T10:57:26;99016.41;;;16.02;25.58
22653;BME280;11493;43.344;26.226;2023-03-14T10:59:57;99011.84;;;16.10;25.81
22653;BME280;11493;43.344;26.226;2023-03-14T11:11:26;98991.72;;;16.13;24.76
22653;BME280;11493;43.344;26.226;2023-03-14T11:16:56;98980.59;;;16.29;23.68
22653;BME280;11493;43.344;26.226;2023-03-14T11:22:43;98952.16;;;16.35;23.30
22653;BME280;11493;43.344;26.226;2023-03-14T11:25:31;98927.97;;;16.36;23.86
22653;BME280;11493;43.344;26.226;2023-03-14T11:31:27;98926.44;;;16.38;23.98
22653;BME280;11493;43.344;26.226;2023-03-14T11:39:18;98922.91;;;16.77;23.21
22653;BME280;11493;43.344;26.226;2023-03-14T11:41:52;98915.88;;;16.63;23.12
22653;BME280;11493;43.344;26.226;2023-03-14T11:49:52;98904.19;;;16.93;23.63
22653;BME280;11493;43.344;26.226;2023-03-14T11:52:32;98871.22;;;16.72;23.57
22653;BME280;11493;43.344;26.226;2023-03-14T11:55:10;98891.25;;;17.00;23.33
22653;BME280;11493;43.344;26.226;2023-03-14T11:57:40;98886.13;;;16.83;23.56
22653;BME280;11493;43.344;26.226;2023-03-14T12:00:20;98888.56;;;16.85;23.28
22653;BME280;11493;43.344;26.226;2023-03-14T12:08:39;98863.00;;;17.21;23.06
22653;BME280;11493;43.344;26.226;2023-03-14T12:13:52;98853.44;;;17.19;22.98
22653;BME280;11493;43.344;26.226;2023-03-14T12:18:53;98846.41;;;17.02;23.34
22653;BME280;11493;43.344;26.226;2023-03-14T12:21:22;98841.66;;;17.02;23.53
22653;BME280;11493;43.344;26.226;2023-03-14T12:23:56;98839.84;;;17.14;23.79
22653;BME280;11493;43.344;26.226;2023-03-14T12:26:26;98835.16;;;17.18;23.97
22653;BME280;11493;43.344;26.226;2023-03-14T12:37:01;98806.84;;;17.35;23.24
22653;BME280;11493;43.344;26.226;2023-03-14T12:42:12;98803.88;;;17.24;23.87
22653;BME280;11493;43.344;26.226;2023-03-14T12:44:48;98794.44;;;17.29;23.42
22653;BME280;11493;43.344;26.226;2023-03-14T12:49:52;98782.91;;;17.04;24.87
22653;BME280;11493;43.344;26.226;2023-03-14T12:55:24;98773.97;;;17.18;24.21
22653;BME280;11493;43.344;26.226;2023-03-14T13:00:57;98770.25;;;17.33;22.85
22653;BME280;11493;43.344;26.226;2023-03-14T13:03:39;98762.97;;;17.25;22.67
22653;BME280;11493;43.344;26.226;2023-03-14T13:06:11;98759.66;;;17.16;23.40
22653;BME280;11493;43.344;26.226;2023-03-14T13:08:43;98758.16;;;17.22;23.30
22653;BME280;11493;43.344;26.226;2023-03-14T13:11:20;98763.72;;;17.22;23.21
22653;BME280;11493;43.344;26.226;2023-03-14T13:13:57;98764.09;;;17.20;22.60
22653;BME280;11493;43.344;26.226;2023-03-14T13:16:27;98764.03;;;17.17;22.57
22653;BME280;11493;43.344;26.226;2023-03-14T13:19:10;98740.50;;;17.11;22.99
22653;BME280;11493;43.344;26.226;2023-03-14T13:21:41;98755.06;;;17.27;22.51
22653;BME280;11493;43.344;26.226;2023-03-14T13:24:23;98745.38;;;17.17;22.62
22653;BME280;11493;43.344;26.226;2023-03-14T13:26:55;98745.56;;;17.28;22.63
22653;BME280;11493;43.344;26.226;2023-03-14T13:29:31;98735.06;;;17.18;23.52
22653;BME280;11493;43.344;26.226;2023-03-14T13:32:02;98735.72;;;17.07;22.96
22653;BME280;11493;43.344;26.226;2023-03-14T13:34:38;98723.50;;;17.16;23.21
22653;BME280;11493;43.344;26.226;2023-03-14T13:37:20;98722.34;;;17.17;22.70
22653;BME280;11493;43.344;26.226;2023-03-14T13:39:50;98715.56;;;17.14;23.41
22653;BME280;11493;43.344;26.226;2023-03-14T13:42:19;98717.53;;;17.14;22.15
22653;BME280;11493;43.344;26.226;2023-03-14T13:44:48;98716.34;;;17.15;22.23
22653;BME280;11493;43.344;26.226;2023-03-14T13:47:18;98716.63;;;17.06;22.61
22653;BME280;11493;43.344;26.226;2023-03-14T13:49:49;98702.03;;;17.13;22.15
22653;BME280;11493;43.344;26.226;2023-03-14T13:52:30;98705.72;;;17.20;22.38
22653;BME280;11493;43.344;26.226;2023-03-14T13:55:00;98701.44;;;17.00;22.83
22653;BME280;11493;43.344;26.226;2023-03-14T13:57:46;98688.56;;;16.88;22.24
22653;BME280;11493;43.344;26.226;2023-03-14T14:00:27;98696.69;;;17.00;22.36
22653;BME280;11493;43.344;26.226;2023-03-14T14:03:00;98692.63;;;16.94;22.30
22653;BME280;11493;43.344;26.226;2023-03-14T14:05:29;98674.59;;;16.85;22.54
22653;BME280;11493;43.344;26.226;2023-03-14T14:08:03;98683.63;;;16.78;22.33
22653;BME280;11493;43.344;26.226;2023-03-14T14:10:31;98678.38;;;16.96;22.48
22653;BME280;11493;43.344;26.226;2023-03-14T14:13:03;98673.59;;;16.96;22.33
22653;BME280;11493;43.344;26.226;2023-03-14T14:15:36;98663.88;;;16.83;22.51
22653;BME280;11493;43.344;26.226;2023-03-14T14:18:09;98661.16;;;16.87;21.90
22653;BME280;11493;43.344;26.226;2023-03-14T14:20:40;98655.72;;;16.71;22.12
22653;BME280;11493;43.344;26.226;2023-03-14T14:23:18;98655.66;;;16.67;22.55
22653;BME280;11493;43.344;26.226;2023-03-14T14:25:52;98646.28;;;16.75;22.49
22653;BME280;11493;43.344;26.226;2023-03-14T14:28:34;98650.38;;;16.62;22.51
22653;BME280;11493;43.344;26.226;2023-03-14T14:31:15;98641.63;;;16.60;22.63
22653;BME280;11493;43.344;26.226;2023-03-14T14:33:59;98640.81;;;16.60;22.70
22653;BME280;11493;43.344;26.226;2023-03-14T14:39:20;98631.44;;;16.45;22.74
22653;BME280;11493;43.344;26.226;2023-03-14T14:41:51;98625.91;;;16.45;22.82
22653;BME280;11493;43.344;26.226;2023-03-14T14:44:32;98628.31;;;16.47;22.59